createdAt,value
2022-07-26T00:00:22.529Z,48.98
2022-07-26T00:02:49.883Z,49.50
2022-07-26T00:05:17.674Z,49.37
2022-07-26T00:07:45.830Z,49.31
2022-07-26T00:10:13.979Z,49.54
2022-07-26T00:12:40.912Z,49.63
2022-07-26T00:15:11.208Z,49.67
2022-07-26T00:17:39.759Z,50.01
2022-07-26T00:20:07.614Z,50.64
2022-07-26T00:22:34.919Z,50.84
2022-07-26T00:25:08.592Z,50.87
2022-07-26T00:27:39.543Z,51.14
2022-07-26T00:30:09.694Z,50.95
2022-07-26T00:32:37.773Z,52.16
2022-07-26T00:35:06.214Z,53.51
2022-07-26T00:37:34.179Z,55.24
2022-07-26T00:40:01.110Z,56.40
2022-07-26T00:42:27.912Z,57.58
2022-07-26T00:44:54.803Z,57.85
2022-07-26T00:47:21.841Z,57.89
2022-07-26T00:49:49.103Z,58.53
2022-07-26T00:52:17.487Z,60.21
2022-07-26T00:54:48.894Z,61.06
2022-07-26T00:57:16.236Z,61.36
2022-07-26T00:59:43.412Z,61.46
2022-07-26T01:02:11.534Z,61.64
2022-07-26T01:04:39.959Z,62.35
2022-07-26T01:07:15.159Z,62.90
2022-07-26T01:09:43.782Z,63.18
2022-07-26T01:12:11.056Z,63.24
2022-07-26T01:14:38.130Z,63.53
2022-07-26T01:17:05.407Z,63.60
2022-07-26T01:19:32.288Z,63.47
2022-07-26T01:21:59.387Z,63.75
2022-07-26T01:24:26.512Z,63.79
2022-07-26T01:26:55.517Z,63.72
2022-07-26T01:29:23.762Z,63.58
2022-07-26T01:32:03.995Z,63.75
2022-07-26T01:34:30.854Z,63.74
2022-07-26T01:36:57.783Z,63.83
2022-07-26T01:39:24.858Z,63.60
2022-07-26T01:41:51.956Z,63.57
2022-07-26T01:44:18.822Z,63.36
2022-07-26T01:46:45.680Z,63.29
2022-07-26T01:49:12.593Z,63.31
2022-07-26T01:51:39.529Z,62.30
2022-07-26T01:54:07.310Z,61.29
2022-07-26T01:56:34.477Z,60.85
2022-07-26T01:59:01.810Z,60.76
2022-07-26T02:01:38.915Z,60.37
2022-07-26T02:04:08.964Z,60.61
2022-07-26T02:06:37.328Z,60.76
2022-07-26T02:09:05.210Z,60.80
2022-07-26T02:11:34.732Z,60.81
2022-07-26T02:14:03.353Z,60.81
2022-07-26T02:16:30.309Z,60.91
2022-07-26T02:18:57.578Z,60.66
2022-07-26T02:21:24.467Z,61.35
2022-07-26T02:23:51.353Z,61.10
2022-07-26T02:26:18.239Z,60.98
2022-07-26T02:28:45.150Z,61.22
2022-07-26T02:31:12.134Z,61.54
2022-07-26T02:33:42.879Z,62.21
2022-07-26T02:36:09.901Z,62.50
2022-07-26T02:38:36.982Z,62.96
2022-07-26T02:41:03.947Z,63.33
2022-07-26T02:43:32.275Z,63.45
2022-07-26T02:46:01.479Z,63.56
2022-07-26T02:48:31.646Z,63.05
2022-07-26T02:50:58.653Z,62.99
2022-07-26T02:53:25.556Z,63.05
2022-07-26T02:55:52.586Z,63.25
2022-07-26T02:58:21.563Z,63.36
2022-07-26T03:00:48.742Z,63.10
2022-07-26T03:03:15.960Z,62.78
2022-07-26T03:05:43.098Z,62.67
2022-07-26T03:08:10.201Z,62.54
2022-07-26T03:10:37.088Z,62.74
2022-07-26T03:13:03.942Z,62.60
2022-07-26T03:15:31.720Z,62.89
2022-07-26T03:17:58.693Z,62.94
2022-07-26T03:20:25.747Z,62.92
2022-07-26T03:22:52.633Z,63.05
2022-07-26T03:25:19.601Z,63.24
2022-07-26T03:27:46.937Z,63.63
2022-07-26T03:30:14.413Z,63.69
2022-07-26T03:32:41.597Z,63.39
2022-07-26T03:35:09.172Z,63.34
2022-07-26T03:37:44.800Z,63.10
2022-07-26T03:40:17.508Z,63.28
2022-07-26T03:42:46.832Z,63.41
2022-07-26T03:45:15.994Z,63.53
2022-07-26T03:47:43.746Z,63.59
2022-07-26T03:50:11.227Z,64.08
2022-07-26T03:52:38.377Z,63.79
2022-07-26T03:55:25.702Z,63.94
2022-07-26T03:57:53.125Z,63.82
2022-07-26T04:00:20.019Z,63.99
2022-07-26T04:02:46.966Z,63.58
2022-07-26T04:05:14.991Z,64.01
2022-07-26T04:07:52.647Z,64.01
2022-07-26T04:10:22.400Z,63.99
2022-07-26T04:12:50.251Z,64.29
2022-07-26T04:15:18.990Z,64.37
2022-07-26T04:17:48.115Z,64.53
2022-07-26T04:20:15.825Z,64.71
2022-07-26T04:22:43.081Z,64.75
2022-07-26T04:25:10.374Z,64.98
2022-07-26T04:27:38.730Z,65.12
2022-07-26T04:30:14.462Z,64.87
2022-07-26T04:32:46.516Z,65.00
2022-07-26T04:35:14.891Z,65.00
2022-07-26T04:37:44.045Z,64.76
2022-07-26T04:40:17.242Z,64.84
2022-07-26T04:42:49.898Z,65.07
2022-07-26T04:45:17.414Z,65.23
2022-07-26T04:47:49.137Z,65.33
2022-07-26T04:50:17.818Z,65.48
2022-07-26T04:52:44.835Z,65.52
2022-07-26T04:55:12.008Z,65.40
2022-07-26T04:57:39.345Z,65.46
2022-07-26T05:00:27.757Z,65.31
2022-07-26T05:02:58.149Z,64.99
2022-07-26T05:05:33.297Z,64.89
2022-07-26T05:08:03.488Z,64.28
2022-07-26T05:10:36.460Z,63.95
2022-07-26T05:13:06.230Z,63.54
2022-07-26T05:15:36.591Z,62.93
2022-07-26T05:18:12.701Z,62.94
2022-07-26T05:20:40.663Z,62.55
2022-07-26T05:23:07.989Z,62.14
2022-07-26T05:25:35.529Z,61.98
2022-07-26T05:28:02.645Z,62.05
2022-07-26T05:32:56.907Z,61.02
2022-07-26T05:35:23.994Z,60.40
2022-07-26T05:37:51.018Z,60.69
2022-07-26T05:40:17.951Z,60.51
2022-07-26T05:42:59.994Z,60.50
2022-07-26T05:45:27.015Z,60.28
2022-07-26T05:47:54.087Z,59.39
2022-07-26T05:50:21.426Z,58.85
2022-07-26T05:52:48.428Z,58.46
2022-07-26T05:55:15.399Z,58.04
2022-07-26T05:57:42.317Z,57.33
2022-07-26T06:00:10.865Z,56.53
2022-07-26T06:02:37.708Z,56.30
2022-07-26T06:05:05.337Z,56.10
2022-07-26T06:07:32.848Z,55.51
2022-07-26T06:09:59.938Z,55.65
2022-07-26T06:12:26.974Z,56.08
2022-07-26T06:14:54.832Z,56.02
2022-07-26T06:17:21.838Z,55.77
2022-07-26T06:19:48.814Z,55.75
2022-07-26T06:22:15.818Z,54.92
2022-07-26T06:24:42.658Z,54.90
2022-07-26T06:27:09.547Z,55.11
2022-07-26T06:29:36.384Z,55.31
2022-07-26T06:32:03.632Z,54.44
2022-07-26T06:34:30.737Z,54.52
2022-07-26T06:36:57.689Z,54.40
2022-07-26T06:39:24.986Z,53.96
2022-07-26T06:41:51.894Z,53.26
2022-07-26T06:44:18.731Z,53.03
2022-07-26T06:46:45.669Z,53.10
2022-07-26T06:49:13.102Z,53.10
2022-07-26T06:51:40.070Z,52.83
2022-07-26T06:54:07.247Z,52.69
2022-07-26T06:56:34.308Z,52.92
2022-07-26T06:59:04.014Z,52.69
2022-07-26T07:01:57.913Z,52.68
2022-07-26T07:04:20.346Z,51.88
2022-07-26T07:06:47.199Z,51.78
2022-07-26T07:09:16.474Z,51.66
2022-07-26T07:11:44.490Z,50.61
2022-07-26T07:14:12.244Z,49.69
2022-07-26T07:16:39.224Z,49.11
2022-07-26T07:19:06.436Z,47.34
2022-07-26T07:21:33.844Z,47.19
2022-07-26T07:24:00.819Z,46.62
2022-07-26T07:26:29.220Z,46.23
2022-07-26T07:28:56.347Z,46.25
2022-07-26T07:31:30.446Z,46.28
2022-07-26T07:34:11.111Z,46.62
2022-07-26T07:36:38.302Z,46.22
2022-07-26T07:39:07.571Z,45.97
2022-07-26T07:41:38.290Z,45.46
2022-07-26T07:44:05.967Z,45.09
2022-07-26T07:46:33.145Z,44.89
2022-07-26T07:49:01.581Z,44.47
2022-07-26T07:51:28.988Z,44.57
2022-07-26T07:53:57.936Z,44.60
2022-07-26T07:56:26.380Z,44.46
2022-07-26T07:58:53.307Z,44.15
2022-07-26T08:01:20.283Z,44.20
2022-07-26T08:03:50.676Z,43.49
2022-07-26T08:06:18.224Z,42.93
2022-07-26T08:08:45.497Z,42.65
2022-07-26T08:11:15.963Z,42.07
2022-07-26T08:13:47.483Z,41.81
2022-07-26T08:16:15.211Z,42.18
2022-07-26T08:18:56.123Z,42.34
2022-07-26T08:21:28.333Z,42.52
2022-07-26T08:23:57.320Z,42.41
2022-07-26T08:26:24.528Z,41.25
2022-07-26T08:28:59.828Z,40.45
2022-07-26T08:31:36.198Z,40.46
2022-07-26T08:34:03.591Z,40.41
2022-07-26T08:36:32.735Z,40.41
2022-07-26T08:39:01.293Z,41.36
2022-07-26T08:41:28.591Z,40.09
2022-07-26T08:44:04.013Z,40.98
2022-07-26T08:46:30.891Z,41.15
2022-07-26T08:48:58.159Z,40.65
2022-07-26T08:51:26.586Z,39.49
2022-07-26T08:54:05.188Z,41.83
2022-07-26T08:56:35.717Z,42.59
2022-07-26T08:59:21.269Z,42.07
2022-07-26T09:02:03.101Z,41.46
2022-07-26T09:04:43.664Z,42.21
2022-07-26T09:07:19.165Z,41.00
2022-07-26T09:10:11.250Z,41.18
2022-07-26T09:12:40.619Z,41.55
2022-07-26T09:15:33.845Z,42.25
2022-07-26T09:18:03.146Z,41.33
2022-07-26T09:20:32.518Z,40.65
2022-07-26T09:23:11.611Z,40.13
2022-07-26T09:25:44.773Z,39.10
2022-07-26T09:28:29.800Z,39.74
2022-07-26T09:31:00.293Z,39.50
2022-07-26T09:33:43.954Z,38.73
2022-07-26T09:36:11.320Z,37.95
2022-07-26T09:38:58.959Z,37.25
2022-07-26T09:41:36.583Z,37.38
2022-07-26T09:44:19.405Z,37.87
2022-07-26T09:46:59.539Z,36.30
2022-07-26T09:49:40.075Z,35.90
2022-07-26T09:52:21.948Z,36.54
2022-07-26T09:54:49.911Z,35.83
2022-07-26T09:57:19.629Z,35.26
2022-07-26T09:59:47.606Z,35.20
2022-07-26T10:02:14.844Z,35.87
2022-07-26T10:04:42.964Z,35.86
2022-07-26T10:07:10.822Z,35.20
2022-07-26T10:09:59.079Z,35.25
2022-07-26T10:12:31.369Z,34.66
2022-07-26T10:14:58.430Z,33.68
2022-07-26T10:17:34.908Z,33.40
2022-07-26T10:20:10.852Z,34.13
2022-07-26T10:22:49.023Z,34.37
2022-07-26T10:25:19.231Z,35.65
2022-07-26T10:27:55.948Z,36.72
2022-07-26T10:30:34.496Z,34.90
2022-07-26T10:33:10.506Z,34.49
2022-07-26T10:35:40.984Z,34.19
2022-07-26T10:38:24.028Z,34.25
2022-07-26T10:41:06.821Z,33.79
2022-07-26T10:43:42.660Z,33.18
2022-07-26T10:46:16.373Z,34.09
2022-07-26T10:49:00.461Z,34.93
2022-07-26T10:51:33.182Z,34.36
2022-07-26T10:54:01.548Z,33.76
2022-07-26T10:56:33.498Z,33.70
2022-07-26T10:59:02.076Z,31.60
2022-07-26T11:01:42.157Z,34.37
2022-07-26T11:04:22.741Z,32.44
2022-07-26T11:06:49.913Z,32.58
2022-07-26T11:09:21.056Z,32.79
2022-07-26T11:11:48.587Z,33.10
2022-07-26T11:14:18.293Z,33.83
2022-07-26T11:16:50.713Z,34.09
2022-07-26T11:19:24.695Z,33.76
2022-07-26T11:22:00.625Z,33.56
2022-07-26T11:24:28.788Z,32.32
2022-07-26T11:27:02.097Z,31.13
2022-07-26T11:29:38.876Z,30.27
2022-07-26T11:32:22.003Z,29.32
2022-07-26T11:35:00.469Z,28.83
2022-07-26T11:37:28.248Z,28.93
2022-07-26T11:39:55.569Z,29.73
2022-07-26T11:42:22.978Z,27.27
2022-07-26T11:44:51.111Z,26.26
2022-07-26T11:47:25.269Z,26.39
2022-07-26T11:50:13.957Z,26.37
2022-07-26T11:52:41.351Z,25.17
2022-07-26T11:55:09.322Z,24.33
2022-07-26T11:57:36.192Z,24.92
2022-07-26T12:00:04.993Z,24.64
2022-07-26T12:02:32.176Z,24.47
2022-07-26T12:05:21.873Z,24.01
2022-07-26T12:08:05.235Z,23.25
2022-07-26T12:10:32.600Z,23.97
2022-07-26T12:13:26.179Z,23.79
2022-07-26T12:15:53.772Z,24.14
2022-07-26T12:18:29.589Z,25.43
2022-07-26T12:21:09.274Z,23.78
2022-07-26T12:23:49.645Z,24.81
2022-07-26T12:26:20.849Z,24.88
2022-07-26T12:28:47.674Z,26.91
2022-07-26T12:31:32.975Z,23.07
2022-07-26T12:34:00.394Z,22.38
2022-07-26T12:36:29.474Z,22.32
2022-07-26T12:38:59.952Z,23.67
2022-07-26T12:41:40.103Z,23.75
2022-07-26T12:44:12.175Z,23.96
2022-07-26T12:46:39.907Z,23.03
2022-07-26T12:49:07.009Z,22.83
2022-07-26T12:51:34.411Z,22.12
2022-07-26T12:54:01.551Z,22.24
2022-07-26T12:56:28.529Z,22.01
2022-07-26T12:59:00.862Z,22.06
2022-07-26T13:01:29.976Z,21.76
2022-07-26T13:03:57.127Z,21.60
2022-07-26T13:06:24.013Z,21.56
2022-07-26T13:08:50.817Z,24.35
2022-07-26T13:11:17.661Z,24.75
2022-07-26T13:13:44.583Z,24.20
2022-07-26T13:16:16.600Z,23.86
2022-07-26T13:18:43.376Z,23.79
2022-07-26T13:21:11.568Z,23.29
2022-07-26T13:23:38.526Z,22.71
2022-07-26T13:26:09.052Z,21.76
2022-07-26T13:28:37.096Z,21.42
2022-07-26T13:31:04.235Z,21.14
2022-07-26T13:33:33.067Z,21.07
2022-07-26T13:36:00.165Z,21.01
2022-07-26T13:38:28.335Z,21.33
2022-07-26T13:40:56.475Z,20.88
2022-07-26T13:43:24.125Z,22.11
2022-07-26T13:45:51.063Z,21.25
2022-07-26T13:48:18.020Z,21.31
2022-07-26T13:50:45.565Z,21.35
2022-07-26T13:53:12.545Z,22.87
2022-07-26T13:55:39.407Z,24.41
2022-07-26T13:58:10.085Z,25.23
2022-07-26T14:00:38.113Z,24.47
2022-07-26T14:03:05.323Z,23.09
2022-07-26T14:05:32.457Z,22.78
2022-07-26T14:07:59.370Z,22.13
2022-07-26T14:10:26.440Z,21.92
2022-07-26T14:12:53.671Z,22.04
2022-07-26T14:15:22.980Z,22.24
2022-07-26T14:17:53.642Z,23.10
2022-07-26T14:20:21.453Z,24.17
2022-07-26T14:22:53.462Z,23.65
2022-07-26T14:25:21.532Z,22.87
2022-07-26T14:27:52.484Z,22.12
2022-07-26T14:30:21.357Z,21.70
2022-07-26T14:32:48.939Z,22.14
2022-07-26T14:35:17.346Z,22.14
2022-07-26T14:37:46.023Z,22.33
2022-07-26T14:40:17.642Z,22.82
2022-07-26T14:42:46.491Z,22.07
2022-07-26T14:45:16.191Z,22.82
2022-07-26T14:47:44.063Z,23.75
2022-07-26T14:50:13.687Z,24.09
2022-07-26T14:52:48.624Z,25.50
2022-07-26T14:55:21.684Z,26.35
2022-07-26T14:57:52.090Z,26.21
2022-07-26T15:00:19.093Z,26.52
2022-07-26T15:02:48.830Z,25.57
2022-07-26T15:05:17.554Z,24.99
2022-07-26T15:07:45.433Z,24.29
2022-07-26T15:10:14.312Z,24.28
2022-07-26T15:12:42.654Z,24.05
2022-07-26T15:15:11.325Z,23.85
2022-07-26T15:17:38.280Z,23.40
2022-07-26T15:20:06.424Z,23.54
2022-07-26T15:22:37.644Z,23.73
2022-07-26T15:25:05.089Z,23.97
2022-07-26T15:27:32.061Z,24.14
2022-07-26T15:30:04.242Z,24.12
2022-07-26T15:32:34.666Z,24.90
2022-07-26T15:35:01.887Z,25.12
2022-07-26T15:37:28.868Z,25.14
2022-07-26T15:39:56.064Z,25.39
2022-07-26T15:42:23.335Z,25.56
2022-07-26T15:44:50.877Z,25.17
2022-07-26T15:47:43.369Z,25.52
2022-07-26T15:50:07.739Z,25.88
2022-07-26T15:52:39.219Z,26.65
2022-07-26T15:55:08.300Z,27.21
2022-07-26T15:57:36.070Z,27.57
2022-07-26T16:00:11.442Z,27.88
2022-07-26T16:02:40.130Z,28.25
2022-07-26T16:05:08.107Z,28.24
2022-07-26T16:07:35.107Z,28.02
2022-07-26T16:10:01.946Z,27.85
2022-07-26T16:12:29.573Z,27.59
2022-07-26T16:14:56.433Z,27.66
2022-07-26T16:17:23.490Z,28.19
2022-07-26T16:19:50.580Z,28.22
2022-07-26T16:22:17.793Z,28.01
2022-07-26T16:24:44.703Z,28.46
2022-07-26T16:27:11.653Z,28.92
2022-07-26T16:29:38.602Z,29.37
2022-07-26T16:32:12.015Z,29.43
2022-07-26T16:34:39.230Z,29.52
2022-07-26T16:37:06.573Z,29.41
2022-07-26T16:39:33.407Z,30.17
2022-07-26T16:42:06.849Z,30.38
2022-07-26T16:44:52.183Z,30.56
2022-07-26T16:47:19.097Z,30.54
2022-07-26T16:49:46.200Z,30.45
2022-07-26T16:52:13.063Z,30.40
2022-07-26T16:54:40.607Z,30.46
2022-07-26T16:57:07.860Z,30.61
2022-07-26T16:59:35.087Z,30.73
2022-07-26T17:02:02.972Z,30.91
2022-07-26T17:04:30.387Z,30.99
2022-07-26T17:07:23.245Z,30.90
2022-07-26T17:09:44.153Z,30.72
2022-07-26T17:12:11.001Z,31.12
2022-07-26T17:14:37.851Z,30.70
2022-07-26T17:17:04.929Z,30.80
2022-07-26T17:19:31.811Z,30.46
2022-07-26T17:21:58.878Z,30.70
2022-07-26T17:24:25.958Z,30.91
2022-07-26T17:26:52.839Z,30.94
2022-07-26T17:29:19.653Z,31.05
2022-07-26T17:31:46.721Z,31.16
2022-07-26T17:34:13.655Z,31.39
2022-07-26T17:36:40.634Z,31.54
2022-07-26T17:39:10.515Z,31.75
2022-07-26T17:41:47.502Z,31.62
2022-07-26T17:44:14.835Z,31.81
2022-07-26T17:46:42.158Z,31.58
2022-07-26T17:49:09.484Z,31.95
2022-07-26T17:51:37.498Z,32.04
2022-07-26T17:54:04.931Z,32.44
2022-07-26T17:56:35.598Z,32.51
2022-07-26T17:59:02.524Z,33.24
2022-07-26T18:01:29.425Z,33.38
2022-07-26T18:03:56.472Z,33.50
2022-07-26T18:06:23.410Z,33.47
2022-07-26T18:08:50.324Z,33.39
2022-07-26T18:11:17.241Z,33.69
2022-07-26T18:13:44.114Z,33.66
2022-07-26T18:16:10.994Z,33.74
2022-07-26T18:18:38.056Z,33.71
2022-07-26T18:21:04.999Z,33.79
2022-07-26T18:23:31.803Z,33.94
2022-07-26T18:25:59.153Z,33.90
2022-07-26T18:28:26.184Z,33.72
2022-07-26T18:30:53.271Z,34.20
2022-07-26T18:33:20.497Z,34.15
2022-07-26T18:35:47.399Z,34.12
2022-07-26T18:38:14.326Z,34.01
2022-07-26T18:40:41.293Z,34.47
2022-07-26T18:43:08.740Z,34.40
2022-07-26T18:45:35.718Z,34.53
2022-07-26T18:48:02.801Z,34.48
2022-07-26T18:50:31.052Z,34.97
2022-07-26T18:52:59.404Z,35.05
2022-07-26T18:55:26.729Z,35.53
2022-07-26T18:57:53.775Z,34.89
2022-07-26T19:00:22.803Z,35.38
2022-07-26T19:02:51.931Z,35.61
2022-07-26T19:05:20.455Z,35.65
2022-07-26T19:07:47.287Z,35.94
2022-07-26T19:10:14.755Z,36.01
2022-07-26T19:12:43.715Z,36.27
2022-07-26T19:15:11.850Z,36.56
2022-07-26T19:17:38.785Z,36.78
2022-07-26T19:20:07.431Z,36.80
2022-07-26T19:22:35.313Z,36.67
2022-07-26T19:25:02.899Z,36.91
2022-07-26T19:27:29.719Z,37.68
2022-07-26T19:29:56.997Z,37.27
2022-07-26T19:32:27.215Z,37.19
2022-07-26T19:34:57.371Z,37.65
2022-07-26T19:37:24.310Z,37.58
2022-07-26T19:39:53.647Z,37.91
2022-07-26T19:42:20.454Z,38.06
2022-07-26T19:44:47.667Z,38.28
2022-07-26T19:47:15.044Z,38.67
2022-07-26T19:49:42.421Z,38.78
2022-07-26T19:52:11.754Z,39.38
2022-07-26T19:54:39.307Z,39.93
2022-07-26T19:57:07.676Z,40.63
2022-07-26T19:59:34.609Z,41.55
2022-07-26T20:02:02.297Z,42.15
2022-07-26T20:04:29.556Z,42.18
2022-07-26T20:06:56.444Z,42.17
2022-07-26T20:09:23.344Z,42.42
2022-07-26T20:11:51.031Z,42.49
2022-07-26T20:14:20.017Z,42.67
2022-07-26T20:16:51.533Z,42.87
2022-07-26T20:19:21.018Z,43.01
2022-07-26T20:21:47.834Z,43.72
2022-07-26T20:24:14.884Z,44.19
2022-07-26T20:26:42.757Z,44.06
2022-07-26T20:29:11.252Z,44.66
2022-07-26T20:31:38.416Z,44.80
2022-07-26T20:34:05.286Z,44.86
2022-07-26T20:36:32.213Z,45.15
2022-07-26T20:39:00.734Z,45.75
2022-07-26T20:41:27.774Z,45.91
2022-07-26T20:44:00.955Z,46.32
2022-07-26T20:46:28.009Z,46.31
2022-07-26T20:48:55.204Z,46.46
2022-07-26T20:51:22.338Z,46.79
2022-07-26T20:53:49.720Z,46.76
2022-07-26T20:56:16.690Z,46.86
2022-07-26T20:58:43.763Z,46.72
2022-07-26T21:01:13.211Z,46.61
2022-07-26T21:03:40.132Z,46.53
2022-07-26T21:06:07.155Z,46.66
2022-07-26T21:08:35.039Z,47.05
2022-07-26T21:11:02.019Z,47.41
2022-07-26T21:13:28.856Z,47.99
2022-07-26T21:15:55.880Z,48.43
2022-07-26T21:18:22.713Z,48.44
2022-07-26T21:20:49.580Z,49.00
2022-07-26T21:23:18.316Z,49.12
2022-07-26T21:25:45.693Z,49.46
2022-07-26T21:28:12.711Z,49.34
2022-07-26T21:30:39.775Z,49.29
2022-07-26T21:33:06.722Z,49.21
2022-07-26T21:35:34.036Z,49.07
2022-07-26T21:38:00.924Z,49.21
2022-07-26T21:40:27.826Z,48.97
2022-07-26T21:42:54.653Z,49.14
2022-07-26T21:45:21.534Z,49.21
2022-07-26T21:47:48.665Z,49.26
2022-07-26T21:50:15.457Z,49.31
2022-07-26T21:52:42.364Z,49.30
2022-07-26T21:55:09.435Z,49.43
2022-07-26T21:57:36.458Z,49.86
2022-07-26T22:00:06.723Z,50.03
2022-07-26T22:02:33.650Z,49.85
2022-07-26T22:05:01.071Z,49.77
2022-07-26T22:07:27.986Z,50.02
2022-07-26T22:09:54.805Z,50.29
2022-07-26T22:12:21.682Z,50.73
2022-07-26T22:14:48.518Z,50.97
2022-07-26T22:17:18.363Z,51.17
2022-07-26T22:19:45.219Z,51.43
2022-07-26T22:22:12.031Z,51.03
2022-07-26T22:24:38.845Z,51.24
2022-07-26T22:27:05.762Z,51.69
2022-07-26T22:29:38.833Z,51.77
2022-07-26T22:32:07.202Z,51.60
2022-07-26T22:34:34.146Z,51.67
2022-07-26T22:37:01.063Z,51.54
2022-07-26T22:39:27.979Z,51.83
2022-07-26T22:42:14.188Z,51.97
2022-07-26T22:44:41.657Z,51.97
2022-07-26T22:47:08.503Z,52.71
2022-07-26T22:49:35.430Z,52.94
2022-07-26T22:52:02.553Z,52.35
2022-07-26T22:54:29.441Z,52.70
2022-07-26T22:56:56.305Z,52.43
2022-07-26T22:59:25.188Z,52.37
2022-07-26T23:01:52.171Z,53.07
2022-07-26T23:04:19.108Z,52.70
2022-07-26T23:06:46.040Z,52.66
2022-07-26T23:09:14.248Z,52.73
2022-07-26T23:11:41.470Z,53.32
2022-07-26T23:14:08.293Z,53.89
2022-07-26T23:16:35.382Z,54.18
2022-07-26T23:19:02.326Z,53.56
2022-07-26T23:21:29.369Z,53.88
2022-07-26T23:23:56.489Z,53.80
2022-07-26T23:26:23.349Z,53.59
2022-07-26T23:28:50.344Z,53.42
2022-07-26T23:31:17.496Z,52.40
2022-07-26T23:33:51.652Z,51.94
2022-07-26T23:36:25.688Z,52.00
2022-07-26T23:38:54.369Z,52.43
2022-07-26T23:41:21.783Z,52.86
2022-07-26T23:43:48.834Z,53.28
2022-07-26T23:46:15.844Z,53.31
2022-07-26T23:48:43.131Z,53.53
2022-07-26T23:51:10.260Z,53.75
2022-07-26T23:53:37.365Z,54.33
2022-07-26T23:56:04.637Z,54.36
2022-07-26T23:58:31.564Z,54.30
